createdAt,value
2019-04-05T00:00:13.915Z,6.00
2019-04-05T00:02:44.755Z,5.96
2019-04-05T00:05:16.244Z,5.93
2019-04-05T00:07:47.090Z,5.98
2019-04-05T00:10:18.046Z,6.01
2019-04-05T00:12:48.954Z,6.02
2019-04-05T00:15:19.856Z,5.96
2019-04-05T00:17:50.723Z,5.92
2019-04-05T00:20:21.596Z,5.93
2019-04-05T00:22:52.438Z,5.91
2019-04-05T00:25:23.288Z,5.90
2019-04-05T00:27:54.158Z,5.92
2019-04-05T00:30:25.114Z,5.93
2019-04-05T00:32:55.990Z,5.84
2019-04-05T00:35:26.888Z,5.85
2019-04-05T00:37:57.714Z,5.84
2019-04-05T00:40:28.578Z,5.83
2019-04-05T00:42:59.502Z,5.91
2019-04-05T00:45:30.446Z,5.90
2019-04-05T00:48:01.431Z,5.91
2019-04-05T00:50:32.305Z,5.86
2019-04-05T00:53:03.402Z,5.90
2019-04-05T00:55:36.927Z,5.88
2019-04-05T00:58:08.008Z,5.86
2019-04-05T01:00:38.983Z,5.87
2019-04-05T01:03:09.851Z,5.83
2019-04-05T01:05:41.030Z,5.86
2019-04-05T01:08:11.954Z,5.86
2019-04-05T01:10:42.972Z,5.86
2019-04-05T01:13:16.937Z,5.86
2019-04-05T01:15:47.797Z,5.88
2019-04-05T01:18:18.730Z,5.84
2019-04-05T01:20:49.939Z,5.85
2019-04-05T01:23:21.755Z,5.88
2019-04-05T01:25:54.168Z,5.90
2019-04-05T01:28:25.112Z,5.95
2019-04-05T01:30:56.007Z,5.99
2019-04-05T01:33:27.219Z,6.02
2019-04-05T01:35:58.051Z,6.02
2019-04-05T01:38:29.256Z,6.04
2019-04-05T01:41:00.668Z,6.03
2019-04-05T01:43:31.506Z,6.01
2019-04-05T01:46:02.816Z,6.01
2019-04-05T01:48:33.731Z,6.00
2019-04-05T01:51:04.831Z,5.99
2019-04-05T01:53:35.686Z,6.04
2019-04-05T01:56:06.619Z,6.08
2019-04-05T01:58:37.508Z,6.09
2019-04-05T02:01:08.311Z,6.08
2019-04-05T02:03:39.239Z,6.12
2019-04-05T02:06:10.093Z,6.11
2019-04-05T02:08:41.281Z,6.09
2019-04-05T02:11:12.207Z,6.08
2019-04-05T02:13:43.183Z,6.07
2019-04-05T02:16:14.139Z,6.09
2019-04-05T02:18:45.051Z,6.08
2019-04-05T02:21:15.921Z,6.06
2019-04-05T02:23:46.852Z,6.07
2019-04-05T02:26:17.770Z,6.08
2019-04-05T02:28:48.627Z,6.08
2019-04-05T02:31:19.466Z,6.07
2019-04-05T02:33:50.321Z,6.09
2019-04-05T02:36:21.189Z,6.08
2019-04-05T02:38:52.024Z,6.09
2019-04-05T02:41:26.132Z,6.07
2019-04-05T02:43:58.604Z,6.11
2019-04-05T02:46:31.912Z,6.08
2019-04-05T02:49:04.503Z,6.03
2019-04-05T02:51:38.231Z,6.00
2019-04-05T02:54:09.913Z,5.96
2019-04-05T02:56:41.206Z,5.99
2019-04-05T02:59:13.493Z,6.00
2019-04-05T03:01:45.295Z,6.03
2019-04-05T03:04:16.229Z,5.99
2019-04-05T03:06:48.675Z,5.98
2019-04-05T03:09:20.567Z,5.98
2019-04-05T03:11:51.977Z,5.98
2019-04-05T03:14:23.666Z,6.01
2019-04-05T03:16:56.486Z,6.02
2019-04-05T03:19:30.377Z,6.01
2019-04-05T03:22:04.279Z,6.03
2019-04-05T03:24:38.150Z,6.09
2019-04-05T03:27:12.070Z,6.10
2019-04-05T03:29:43.644Z,6.09
2019-04-05T03:32:15.947Z,6.04
2019-04-05T03:34:47.284Z,6.06
2019-04-05T03:37:18.217Z,6.10
2019-04-05T03:39:49.285Z,6.10
2019-04-05T03:42:20.885Z,6.11
2019-04-05T03:44:51.856Z,6.15
2019-04-05T03:47:22.877Z,6.15
2019-04-05T03:49:53.781Z,6.12
2019-04-05T03:52:24.784Z,6.09
2019-04-05T03:54:55.706Z,6.07
2019-04-05T03:57:26.594Z,6.04
2019-04-05T03:59:57.686Z,5.97
2019-04-05T04:02:28.853Z,5.97
2019-04-05T04:04:59.773Z,5.94
2019-04-05T04:07:30.711Z,5.90
2019-04-05T04:10:01.800Z,5.91
2019-04-05T04:12:33.268Z,5.86
2019-04-05T04:15:15.141Z,5.82
2019-04-05T04:17:46.614Z,5.83
2019-04-05T04:20:26.307Z,5.80
2019-04-05T04:22:57.515Z,5.80
2019-04-05T04:25:29.030Z,5.75
2019-04-05T04:28:00.087Z,5.76
2019-04-05T04:30:31.771Z,5.72
2019-04-05T04:33:03.426Z,5.67
2019-04-05T04:35:34.604Z,5.67
2019-04-05T04:38:07.247Z,5.65
2019-04-05T04:40:38.385Z,5.67
2019-04-05T04:43:09.871Z,5.65
2019-04-05T04:45:41.098Z,5.63
2019-04-05T04:48:12.683Z,5.69
2019-04-05T04:50:44.383Z,5.69
2019-04-05T04:53:16.660Z,5.60
2019-04-05T04:55:47.591Z,5.54
2019-04-05T04:58:20.270Z,5.48
2019-04-05T05:00:51.512Z,5.47
2019-04-05T05:03:22.705Z,5.45
2019-04-05T05:05:53.722Z,5.49
2019-04-05T05:08:24.775Z,5.56
2019-04-05T05:10:55.760Z,5.59
2019-04-05T05:13:26.883Z,5.59
2019-04-05T05:15:58.169Z,5.57
2019-04-05T05:18:29.323Z,5.57
2019-04-05T05:21:03.034Z,5.57
2019-04-05T05:23:34.022Z,5.57
2019-04-05T05:26:05.536Z,5.64
2019-04-05T05:28:36.849Z,5.67
2019-04-05T05:31:07.940Z,5.64
2019-04-05T05:33:39.090Z,5.65
2019-04-05T05:36:10.737Z,5.64
2019-04-05T05:38:41.913Z,5.68
2019-04-05T05:41:12.790Z,5.65
2019-04-05T05:43:43.702Z,5.61
2019-04-05T05:46:15.679Z,5.62
2019-04-05T05:48:46.532Z,5.65
2019-04-05T05:51:17.561Z,5.69
2019-04-05T05:53:48.489Z,5.68
2019-04-05T05:56:19.386Z,5.62
2019-04-05T05:58:50.284Z,5.63
2019-04-05T06:01:21.138Z,5.59
2019-04-05T06:03:52.004Z,5.61
2019-04-05T06:06:22.858Z,5.63
2019-04-05T06:08:53.731Z,5.68
2019-04-05T06:14:03.829Z,5.84
2019-04-05T06:16:45.842Z,5.85
2019-04-05T06:19:07.528Z,5.88
2019-04-05T06:21:38.563Z,5.88
2019-04-05T06:24:09.524Z,5.87
2019-04-05T06:26:40.485Z,5.85
2019-04-05T06:29:11.976Z,5.91
2019-04-05T06:31:42.989Z,5.97
2019-04-05T06:34:13.980Z,5.99
2019-04-05T06:36:45.036Z,6.10
2019-04-05T06:39:16.214Z,6.18
2019-04-05T06:41:47.122Z,6.28
2019-04-05T06:44:18.459Z,6.27
2019-04-05T06:46:49.483Z,6.31
2019-04-05T06:49:20.508Z,6.30
2019-04-05T06:51:51.395Z,6.34
2019-04-05T06:54:22.624Z,6.33
2019-04-05T06:56:53.621Z,6.29
2019-04-05T06:59:24.553Z,6.21
2019-04-05T07:01:55.566Z,6.22
2019-04-05T07:04:26.561Z,6.21
2019-04-05T07:06:57.652Z,6.26
2019-04-05T07:09:28.631Z,6.17
2019-04-05T07:11:59.802Z,6.27
2019-04-05T07:14:31.143Z,6.29
2019-04-05T07:17:02.304Z,6.37
2019-04-05T07:19:33.433Z,6.38
2019-04-05T07:22:04.900Z,6.35
2019-04-05T07:24:41.183Z,6.28
2019-04-05T07:27:12.163Z,6.31
2019-04-05T07:29:43.168Z,6.30
2019-04-05T07:32:14.107Z,6.43
2019-04-05T07:34:45.137Z,6.42
2019-04-05T07:37:16.271Z,6.39
2019-04-05T07:39:47.298Z,6.42
2019-04-05T07:42:18.291Z,6.51
2019-04-05T07:44:49.270Z,6.57
2019-04-05T07:47:20.168Z,6.61
2019-04-05T07:49:51.434Z,6.49
2019-04-05T07:52:22.580Z,6.48
2019-04-05T07:54:53.912Z,6.44
2019-04-05T07:57:25.176Z,6.54
2019-04-05T07:59:56.224Z,6.59
2019-04-05T08:02:27.282Z,6.63
2019-04-05T08:04:58.424Z,6.69
2019-04-05T08:07:32.216Z,6.68
2019-04-05T08:10:04.057Z,6.70
2019-04-05T08:12:36.532Z,6.75
2019-04-05T08:15:07.872Z,6.81
2019-04-05T08:17:38.914Z,6.83
2019-04-05T08:20:09.935Z,6.85
2019-04-05T08:22:41.212Z,6.94
2019-04-05T08:25:12.332Z,6.90
2019-04-05T08:27:43.366Z,6.87
2019-04-05T08:30:14.830Z,7.01
2019-04-05T08:32:47.590Z,7.10
2019-04-05T08:35:18.593Z,7.15
2019-04-05T08:37:49.538Z,7.20
2019-04-05T08:40:20.590Z,7.27
2019-04-05T08:42:51.600Z,7.17
2019-04-05T08:45:22.625Z,7.12
2019-04-05T08:47:53.713Z,7.04
2019-04-05T08:50:24.675Z,7.03
2019-04-05T08:52:55.639Z,7.15
2019-04-05T08:55:29.960Z,7.22
2019-04-05T08:58:00.992Z,7.12
2019-04-05T09:00:32.032Z,7.02
2019-04-05T09:03:03.067Z,7.15
2019-04-05T09:05:34.165Z,7.08
2019-04-05T09:08:05.308Z,7.07
2019-04-05T09:10:36.430Z,7.07
2019-04-05T09:13:07.423Z,7.30
2019-04-05T09:15:38.377Z,7.32
2019-04-05T09:18:09.492Z,7.31
2019-04-05T09:20:40.334Z,7.32
2019-04-05T09:23:11.383Z,7.42
2019-04-05T09:25:42.344Z,7.44
2019-04-05T09:28:13.389Z,7.51
2019-04-05T09:30:44.400Z,7.35
2019-04-05T09:33:15.585Z,7.21
2019-04-05T09:35:46.562Z,7.18
2019-04-05T09:38:18.743Z,7.15
2019-04-05T09:40:50.171Z,7.25
2019-04-05T09:43:21.364Z,7.32
2019-04-05T09:45:52.690Z,7.23
2019-04-05T09:48:23.689Z,7.27
2019-04-05T09:51:03.435Z,7.48
2019-04-05T09:53:38.120Z,7.93
2019-04-05T09:56:09.350Z,8.21
2019-04-05T09:58:42.267Z,8.23
2019-04-05T10:01:13.606Z,8.13
2019-04-05T10:03:44.751Z,8.16
2019-04-05T10:06:21.904Z,8.30
2019-04-05T10:08:52.862Z,8.12
2019-04-05T10:11:24.099Z,8.16
2019-04-05T10:13:55.096Z,8.19
2019-04-05T10:16:33.073Z,8.28
2019-04-05T10:19:04.849Z,8.49
2019-04-05T10:21:35.894Z,8.33
2019-04-05T10:24:06.929Z,8.25
2019-04-05T10:26:37.979Z,8.33
2019-04-05T10:29:08.915Z,8.51
2019-04-05T10:31:40.081Z,8.68
2019-04-05T10:34:11.049Z,8.67
2019-04-05T10:36:42.204Z,8.75
2019-04-05T10:39:13.197Z,8.90
2019-04-05T10:41:44.283Z,9.09
2019-04-05T10:44:17.991Z,9.33
2019-04-05T10:46:49.039Z,9.39
2019-04-05T10:49:25.133Z,9.54
2019-04-05T10:51:56.129Z,9.69
2019-04-05T10:54:27.439Z,9.37
2019-04-05T10:57:00.157Z,9.08
2019-04-05T10:59:33.082Z,9.19
2019-04-05T11:02:04.049Z,9.23
2019-04-05T11:04:38.027Z,9.19
2019-04-05T11:07:09.023Z,9.42
2019-04-05T11:09:40.324Z,9.67
2019-04-05T11:12:11.669Z,9.61
2019-04-05T11:14:45.607Z,9.87
2019-04-05T11:17:16.523Z,10.06
2019-04-05T11:19:47.623Z,9.91
2019-04-05T11:22:20.951Z,9.83
2019-04-05T11:24:51.723Z,10.02
2019-04-05T11:27:22.799Z,9.94
2019-04-05T11:29:53.849Z,9.70
2019-04-05T11:32:26.540Z,9.37
2019-04-05T11:34:57.548Z,9.30
2019-04-05T11:37:28.915Z,9.45
2019-04-05T11:39:59.983Z,9.54
2019-04-05T11:42:33.107Z,9.76
2019-04-05T11:45:06.542Z,9.73
2019-04-05T11:47:41.143Z,9.79
2019-04-05T11:50:13.113Z,10.00
2019-04-05T11:52:44.539Z,10.09
2019-04-05T11:55:18.180Z,10.36
2019-04-05T11:57:48.657Z,10.74
2019-04-05T12:00:21.421Z,10.86
2019-04-05T12:02:54.024Z,11.32
2019-04-05T12:05:26.988Z,11.36
2019-04-05T12:08:00.972Z,11.58
2019-04-05T12:10:32.112Z,11.48
2019-04-05T12:13:03.412Z,11.34
2019-04-05T12:15:35.696Z,11.41
2019-04-05T12:18:07.401Z,11.41
2019-04-05T12:20:49.094Z,11.21
2019-04-05T12:23:11.339Z,11.13
2019-04-05T12:25:42.316Z,11.13
2019-04-05T12:28:13.277Z,11.18
2019-04-05T12:30:46.243Z,11.61
2019-04-05T12:33:19.572Z,12.12
2019-04-05T12:35:53.017Z,12.51
2019-04-05T12:38:31.564Z,12.59
2019-04-05T12:41:04.744Z,12.75
2019-04-05T12:43:37.622Z,12.93
2019-04-05T12:46:08.706Z,12.74
2019-04-05T12:48:39.841Z,12.37
2019-04-05T12:51:13.149Z,12.23
2019-04-05T12:53:43.628Z,12.13
2019-04-05T12:56:14.621Z,11.71
2019-04-05T12:58:45.576Z,11.38
2019-04-05T13:01:16.724Z,11.14
2019-04-05T13:03:51.093Z,11.08
2019-04-05T13:06:21.866Z,11.11
2019-04-05T13:08:53.747Z,10.92
2019-04-05T13:11:45.480Z,11.05
2019-04-05T13:14:35.852Z,10.85
2019-04-05T13:17:31.885Z,10.65
2019-04-05T13:20:31.493Z,10.56
2019-04-05T13:23:06.407Z,10.46
2019-04-05T13:25:41.021Z,11.07
2019-04-05T13:28:18.948Z,11.48
2019-04-05T13:30:50.157Z,11.83
2019-04-05T13:33:23.597Z,13.08
2019-04-05T13:35:55.569Z,14.82
2019-04-05T13:38:27.522Z,16.38
2019-04-05T13:41:02.192Z,16.72
2019-04-05T13:43:33.314Z,16.87
2019-04-05T13:46:05.818Z,16.38
2019-04-05T13:48:39.680Z,15.67
2019-04-05T13:51:13.090Z,14.83
2019-04-05T13:53:44.232Z,14.17
2019-04-05T13:56:18.066Z,13.85
2019-04-05T13:58:49.062Z,13.69
2019-04-05T14:01:20.575Z,13.26
2019-04-05T14:03:52.252Z,12.92
2019-04-05T14:06:23.698Z,12.58
2019-04-05T14:08:54.673Z,12.41
2019-04-05T14:11:26.093Z,12.51
2019-04-05T14:13:57.174Z,12.40
2019-04-05T14:16:31.415Z,12.35
2019-04-05T14:19:03.060Z,12.36
2019-04-05T14:21:40.230Z,12.69
2019-04-05T14:24:06.791Z,12.94
2019-04-05T14:26:37.955Z,13.18
2019-04-05T14:29:08.924Z,13.12
2019-04-05T14:31:42.772Z,13.16
2019-04-05T14:34:13.882Z,13.14
2019-04-05T14:36:45.166Z,13.18
2019-04-05T14:39:16.304Z,13.15
2019-04-05T14:41:47.352Z,13.04
2019-04-05T14:44:18.400Z,12.98
2019-04-05T14:46:51.403Z,13.10
2019-04-05T14:49:22.426Z,13.08
2019-04-05T14:51:56.567Z,13.13
2019-04-05T14:54:27.091Z,13.23
2019-04-05T14:57:02.442Z,13.34
2019-04-05T14:59:32.794Z,13.48
2019-04-05T15:02:06.983Z,13.57
2019-04-05T15:04:39.680Z,13.43
2019-04-05T15:07:10.775Z,13.35
2019-04-05T15:09:45.414Z,13.24
2019-04-05T15:12:16.345Z,13.06
2019-04-05T15:14:47.437Z,13.38
2019-04-05T15:17:18.372Z,13.44
2019-04-05T15:19:49.333Z,13.47
2019-04-05T15:22:20.234Z,13.48
2019-04-05T15:24:51.287Z,13.55
2019-04-05T15:27:22.413Z,13.59
2019-04-05T15:29:55.602Z,13.50
2019-04-05T15:32:26.670Z,13.60
2019-04-05T15:34:59.002Z,13.68
2019-04-05T15:37:32.486Z,13.48
2019-04-05T15:40:02.971Z,13.73
2019-04-05T15:42:33.957Z,13.91
2019-04-05T15:45:10.147Z,14.02
2019-04-05T15:47:41.209Z,14.04
2019-04-05T15:50:12.456Z,14.14
2019-04-05T15:52:44.141Z,14.01
2019-04-05T15:55:16.041Z,14.12
2019-04-05T15:57:47.018Z,13.95
2019-04-05T16:00:21.106Z,13.99
2019-04-05T16:02:52.307Z,13.93
2019-04-05T16:05:23.387Z,13.77
2019-04-05T16:07:54.489Z,13.77
2019-04-05T16:10:25.655Z,13.71
2019-04-05T16:12:56.651Z,13.97
2019-04-05T16:15:27.710Z,14.27
2019-04-05T16:17:58.899Z,14.35
2019-04-05T16:20:29.910Z,14.51
2019-04-05T16:23:01.013Z,14.77
2019-04-05T16:25:32.596Z,15.10
2019-04-05T16:28:03.602Z,15.26
2019-04-05T16:30:34.568Z,15.40
2019-04-05T16:33:05.697Z,15.14
2019-04-05T16:35:36.659Z,15.17
2019-04-05T16:38:07.723Z,15.13
2019-04-05T16:40:39.351Z,15.22
2019-04-05T16:43:10.346Z,15.23
2019-04-05T16:45:41.403Z,14.86
2019-04-05T16:48:12.563Z,14.55
2019-04-05T16:50:43.512Z,14.37
2019-04-05T16:53:14.539Z,14.42
2019-04-05T16:55:45.574Z,14.57
2019-04-05T16:58:16.530Z,14.45
2019-04-05T17:00:47.656Z,14.14
2019-04-05T17:03:20.347Z,13.90
2019-04-05T17:05:51.288Z,13.66
2019-04-05T17:08:22.233Z,13.61
2019-04-05T17:10:53.250Z,13.41
2019-04-05T17:13:24.453Z,13.09
2019-04-05T17:15:55.496Z,12.92
2019-04-05T17:18:26.531Z,12.72
2019-04-05T17:20:57.541Z,12.52
2019-04-05T17:23:33.136Z,12.42
2019-04-05T17:26:04.193Z,12.24
2019-04-05T17:28:38.390Z,12.12
2019-04-05T17:31:09.628Z,12.00
2019-04-05T17:33:40.758Z,11.86
2019-04-05T17:36:11.882Z,11.75
2019-04-05T17:38:44.179Z,11.59
2019-04-05T17:41:15.136Z,11.39
2019-04-05T17:43:46.108Z,11.08
2019-04-05T17:46:18.666Z,10.89
2019-04-05T17:48:51.740Z,10.74
2019-04-05T17:51:22.569Z,10.64
2019-04-05T17:53:53.773Z,10.55
2019-04-05T17:56:28.679Z,10.51
2019-04-05T17:58:59.786Z,10.51
2019-04-05T18:01:31.910Z,10.45
2019-04-05T18:04:03.039Z,10.36
2019-04-05T18:06:35.970Z,10.26
2019-04-05T18:09:07.650Z,10.22
2019-04-05T18:11:41.839Z,10.19
2019-04-05T18:14:12.997Z,10.17
2019-04-05T18:16:44.074Z,10.13
2019-04-05T18:19:15.060Z,10.07
2019-04-05T18:21:49.258Z,10.03
2019-04-05T18:24:21.928Z,10.03
2019-04-05T18:26:54.156Z,10.01
2019-04-05T18:29:27.490Z,9.97
2019-04-05T18:31:59.483Z,9.88
2019-04-05T18:34:35.088Z,9.78
2019-04-05T18:37:07.348Z,9.68
2019-04-05T18:39:40.106Z,9.51
2019-04-05T18:42:12.466Z,9.38
2019-04-05T18:44:45.247Z,9.32
2019-04-05T18:47:18.342Z,9.23
2019-04-05T18:50:02.403Z,9.16
2019-04-05T18:52:25.920Z,9.09
2019-04-05T18:54:59.659Z,9.03
2019-04-05T18:57:30.604Z,8.94
2019-04-05T19:00:01.589Z,8.90
2019-04-05T19:02:34.105Z,8.83
2019-04-05T19:05:06.859Z,8.79
2019-04-05T19:07:37.756Z,8.77
2019-04-05T19:10:11.120Z,8.76
2019-04-05T19:12:42.279Z,8.69
2019-04-05T19:15:16.533Z,8.66
2019-04-05T19:17:47.510Z,8.60
2019-04-05T19:20:20.318Z,8.65
2019-04-05T19:22:51.254Z,8.73
2019-04-05T19:25:23.901Z,8.84
2019-04-05T19:27:54.771Z,8.92
2019-04-05T19:50:59.130Z,8.96
2019-04-05T19:53:30.189Z,8.88
2019-04-05T19:56:01.192Z,8.80
2019-04-05T19:58:32.391Z,8.70
2019-04-05T20:01:03.418Z,8.62
2019-04-05T20:03:34.464Z,8.56
2019-04-05T20:06:07.722Z,8.51
2019-04-05T20:08:38.266Z,8.49
2019-04-05T20:11:09.281Z,8.46
2019-04-05T20:13:40.402Z,8.46
2019-04-05T20:16:11.388Z,8.46
2019-04-05T20:18:42.506Z,8.46
2019-04-05T20:21:13.417Z,8.40
2019-04-05T20:23:47.726Z,8.31
2019-04-05T20:26:17.314Z,8.28
2019-04-05T20:28:48.307Z,8.29
2019-04-05T20:31:19.359Z,8.30
2019-04-05T20:33:50.353Z,8.29
2019-04-05T20:36:21.412Z,8.24
2019-04-05T20:38:52.395Z,8.24
2019-04-05T20:41:23.393Z,8.27
2019-04-05T20:43:54.300Z,8.29
2019-04-05T20:46:25.282Z,8.27
2019-04-05T20:48:56.339Z,8.25
2019-04-05T20:51:27.446Z,8.27
2019-04-05T20:53:58.353Z,8.30
2019-04-05T20:56:29.486Z,8.33
2019-04-05T20:59:00.420Z,8.36
2019-04-05T21:01:31.403Z,8.36
2019-04-05T21:04:02.377Z,8.33
2019-04-05T21:06:33.789Z,8.32
2019-04-05T21:09:07.318Z,8.29
2019-04-05T21:11:38.739Z,8.26
2019-04-05T21:14:10.147Z,8.21
2019-04-05T21:16:45.098Z,8.10
2019-04-05T21:19:16.295Z,8.00
2019-04-05T21:21:47.301Z,7.91
2019-04-05T21:24:18.198Z,7.83
2019-04-05T21:26:49.151Z,7.79
2019-04-05T21:29:20.163Z,7.70
2019-04-05T21:31:51.217Z,7.62
2019-04-05T21:34:22.202Z,7.49
2019-04-05T21:36:53.214Z,7.38
2019-04-05T21:39:24.172Z,7.28
2019-04-05T21:41:55.064Z,7.17
2019-04-05T21:44:26.195Z,7.03
2019-04-05T21:46:57.134Z,6.90
2019-04-05T21:49:28.020Z,6.81
2019-04-05T21:51:59.128Z,6.79
2019-04-05T21:54:30.060Z,6.77
2019-04-05T21:57:01.063Z,6.76
2019-04-05T21:59:32.004Z,6.76
2019-04-05T22:02:03.246Z,6.68
2019-04-05T22:04:34.128Z,6.61
2019-04-05T22:07:05.174Z,6.54
2019-04-05T22:09:36.110Z,6.49
2019-04-05T22:12:07.064Z,6.50
2019-04-05T22:14:38.066Z,6.47
2019-04-05T22:17:09.164Z,6.43
2019-04-05T22:19:40.149Z,6.33
2019-04-05T22:22:11.244Z,6.27
2019-04-05T22:24:42.207Z,6.24
2019-04-05T22:27:13.144Z,6.19
2019-04-05T22:29:44.194Z,6.13
2019-04-05T22:32:15.190Z,6.03
2019-04-05T22:34:46.168Z,5.99
2019-04-05T22:37:17.076Z,5.92
2019-04-05T22:39:47.970Z,5.88
2019-04-05T22:42:18.924Z,5.82
2019-04-05T22:44:50.047Z,5.78
2019-04-05T22:47:21.192Z,5.80
2019-04-05T22:49:52.186Z,5.80
2019-04-05T22:52:23.652Z,5.73
2019-04-05T22:54:54.720Z,5.67
2019-04-05T22:57:25.781Z,5.69
2019-04-05T22:59:56.889Z,5.62
2019-04-05T23:02:27.994Z,5.58
2019-04-05T23:05:00.914Z,5.57
2019-04-05T23:07:31.707Z,5.64
2019-04-05T23:10:02.925Z,5.69
2019-04-05T23:12:33.906Z,5.75
2019-04-05T23:15:07.207Z,5.82
2019-04-05T23:17:38.294Z,5.78
2019-04-05T23:20:09.720Z,5.74
2019-04-05T23:22:40.886Z,5.74
2019-04-05T23:25:21.465Z,5.71
2019-04-05T23:27:44.563Z,5.70
2019-04-05T23:30:16.361Z,5.74
2019-04-05T23:32:47.403Z,5.69
2019-04-05T23:35:18.446Z,5.66
2019-04-05T23:37:49.750Z,5.63
2019-04-05T23:40:20.871Z,5.55
2019-04-05T23:42:52.141Z,5.45
2019-04-05T23:45:23.062Z,5.33
2019-04-05T23:47:54.055Z,5.21
2019-04-05T23:50:25.051Z,5.12
2019-04-05T23:52:56.001Z,5.11
2019-04-05T23:55:33.133Z,5.14
2019-04-05T23:57:59.803Z,5.17
